Time;durP1;ratioP1;P1;durP2;ratioP2;P2;SDS_P1;SDS_P2;PMS_P1;PMS_P2;Temp;Humidity;BMP_temperature;BMP_pressure;BME280_temperature;BME280_humidity;BME280_pressure;Samples;Min_cycle;Max_cycle;Signal;HPM_P1;HPM_P2
2022/09/16 00:00:30;;;;;;;;;;;19.10;99.90;;;;;;4588349;19;19938;-26
2022/09/16 00:02:21;;;;;;;;;;;19.10;99.90;;;;;;4587980;19;20333;-26
2022/09/16 00:03:55;;;;;;;;;;;19.10;99.90;;;;;;4588974;19;19925;-26
2022/09/16 00:05:26;;;;;;;;;;;19.10;99.90;;;;;;4588414;19;20337;-24
2022/09/16 00:06:58;;;;;;;;;;;19.00;99.90;;;;;;4591267;19;19975;-26
2022/09/16 00:08:31;;;;;;;;;;;19.10;99.90;;;;;;4589394;19;19979;-26
2022/09/16 00:10:02;;;;;;;;;;;19.00;99.90;;;;;;4589654;19;19919;-26
2022/09/16 00:11:33;;;;;;;;;;;19.00;99.90;;;;;;4586250;19;19922;-26
2022/09/16 00:13:04;;;;;;;;;;;19.00;99.90;;;;;;4588975;19;19926;-28
2022/09/16 00:14:35;;;;;;;;;;;19.00;99.90;;;;;;4589278;19;19931;-25
2022/09/16 00:16:09;;;;;;;;;;;19.00;99.90;;;;;;4589429;19;19926;-28
2022/09/16 00:17:40;;;;;;;;;;;19.10;99.90;;;;;;4588923;19;19930;-23
2022/09/16 00:19:12;;;;;;;;;;;19.10;99.90;;;;;;4587999;19;19919;-26
2022/09/16 00:20:44;;;;;;;;;;;19.00;99.90;;;;;;4588965;19;20265;-26
2022/09/16 00:22:15;;;;;;;;;;;19.00;99.90;;;;;;4587846;19;19915;-26
2022/09/16 00:23:46;;;;;;;;;;;19.10;99.90;;;;;;4590436;19;19921;-27
2022/09/16 00:25:17;;;;;;;;;;;19.10;99.90;;;;;;4593448;19;19915;-26
2022/09/16 00:26:48;;;;;;;;;;;19.10;99.90;;;;;;4593564;19;20353;-26
2022/09/16 00:28:20;;;;;;;;;;;19.10;99.90;;;;;;4593435;19;19914;-26
2022/09/16 00:29:51;;;;;;;;;;;19.00;99.90;;;;;;4593559;19;19927;-26
2022/09/16 00:31:22;;;;;;;;;;;19.10;99.90;;;;;;4593389;19;20347;-26
2022/09/16 00:32:54;;;;;;;;;;;19.10;99.90;;;;;;4592686;19;19915;-26
2022/09/16 00:34:25;;;;;;;;;;;19.10;99.90;;;;;;4592177;19;19940;-26
2022/09/16 00:36:05;;;;;;;;;;;19.10;99.90;;;;;;4593003;19;20238;-26
2022/09/16 00:37:36;;;;;;;;;;;19.10;99.90;;;;;;4593212;19;20252;-26
2022/09/16 00:39:07;;;;;;;;;;;19.10;99.90;;;;;;4593278;19;19933;-26
2022/09/16 00:40:44;;;;;;;;;;;19.10;99.90;;;;;;4593175;19;19915;-27
2022/09/16 00:42:16;;;;;;;;;;;19.00;99.90;;;;;;4593170;19;19942;-26
2022/09/16 00:43:57;;;;;;;;;;;19.10;99.90;;;;;;4593475;19;19967;-28
2022/09/16 00:45:30;;;;;;;;;;;19.00;99.90;;;;;;4592097;19;20341;-26
2022/09/16 00:47:01;;;;;;;;;;;19.10;99.90;;;;;;4591954;19;19918;-27
2022/09/16 00:48:32;;;;;;;;;;;19.00;99.90;;;;;;4592602;19;20369;-26
2022/09/16 00:50:23;;;;;;;;;;;19.10;99.90;;;;;;4592166;19;19915;-26
2022/09/16 00:51:59;;;;;;;;;;;19.10;99.90;;;;;;4590195;19;19923;-28
2022/09/16 00:53:30;;;;;;;;;;;19.10;99.90;;;;;;4590926;19;19919;-25
2022/09/16 00:55:02;;;;;;;;;;;19.10;99.90;;;;;;4590682;19;20257;-26
2022/09/16 00:56:34;;;;;;;;;;;19.10;99.90;;;;;;4590696;19;19922;-27
2022/09/16 00:58:10;;;;;;;;;;;19.10;99.90;;;;;;4591028;19;19923;-27
2022/09/16 00:59:42;;;;;;;;;;;19.00;99.90;;;;;;4590744;19;19922;-25
2022/09/16 01:01:13;;;;;;;;;;;19.00;99.90;;;;;;4590474;19;19922;-26
2022/09/16 01:02:44;;;;;;;;;;;19.00;99.90;;;;;;4590896;19;19911;-26
2022/09/16 01:04:17;;;;;;;;;;;19.10;99.90;;;;;;4590789;19;19941;-26
2022/09/16 01:05:49;;;;;;;;;;;19.10;99.90;;;;;;4590477;19;19922;-26
2022/09/16 01:07:22;;;;;;;;;;;19.10;99.90;;;;;;4590568;19;19914;-26
2022/09/16 01:08:54;;;;;;;;;;;19.10;99.90;;;;;;4590241;19;20075;-26
2022/09/16 01:10:25;;;;;;;;;;;19.00;99.90;;;;;;4590409;19;19915;-28
2022/09/16 01:11:56;;;;;;;;;;;19.10;99.90;;;;;;4589350;19;19922;-26
2022/09/16 01:13:27;;;;;;;;;;;19.10;99.90;;;;;;4590353;19;20348;-25
2022/09/16 01:14:58;;;;;;;;;;;19.00;99.90;;;;;;4590665;19;20321;-26
2022/09/16 01:16:31;;;;;;;;;;;19.10;99.90;;;;;;4590260;19;19919;-26
2022/09/16 01:18:20;;;;;;;;;;;19.10;99.90;;;;;;4590230;19;20400;-26
2022/09/16 01:20:09;;;;;;;;;;;19.10;99.90;;;;;;4590557;19;20253;-26
2022/09/16 01:21:43;;;;;;;;;;;19.10;99.90;;;;;;4590314;19;19926;-26
2022/09/16 01:23:17;;;;;;;;;;;19.10;99.90;;;;;;4590049;19;19910;-28
2022/09/16 01:24:49;;;;;;;;;;;19.10;99.90;;;;;;4590691;19;19932;-26
2022/09/16 01:26:38;;;;;;;;;;;19.10;99.90;;;;;;4590405;19;19939;-26
2022/09/16 01:28:38;;;;;;;;;;;19.10;99.90;;;;;;4590405;19;19957;-26
2022/09/16 01:30:15;;;;;;;;;;;19.10;99.90;;;;;;4591514;19;19922;-25
2022/09/16 01:31:58;;;;;;;;;;;19.10;99.90;;;;;;4592151;19;19919;-27
2022/09/16 01:33:36;;;;;;;;;;;19.10;99.90;;;;;;4592443;19;19923;-27
2022/09/16 01:35:09;;;;;;;;;;;19.10;99.90;;;;;;4591527;19;19911;-26
2022/09/16 01:36:58;;;;;;;;;;;19.10;99.90;;;;;;4591138;19;19911;-28
2022/09/16 01:38:48;;;;;;;;;;;19.00;99.90;;;;;;4592169;19;19919;-26
2022/09/16 01:40:22;;;;;;;;;;;19.10;99.90;;;;;;4590970;19;19934;-26
2022/09/16 01:41:56;;;;;;;;;;;19.10;99.90;;;;;;4591097;19;19918;-26
2022/09/16 01:43:39;;;;;;;;;;;19.10;99.90;;;;;;4591805;19;19930;-26
2022/09/16 01:45:20;;;;;;;;;;;19.10;99.90;;;;;;4591872;19;20260;-26
2022/09/16 01:46:58;;;;;;;;;;;19.10;99.90;;;;;;4590853;19;19923;-26
2022/09/16 01:48:36;;;;;;;;;;;19.10;99.90;;;;;;4590911;19;19926;-26
2022/09/16 01:50:13;;;;;;;;;;;19.10;99.90;;;;;;4590765;19;19943;-28
2022/09/16 01:51:45;;;;;;;;;;;19.10;99.90;;;;;;4590993;19;19926;-27
2022/09/16 01:53:27;;;;;;;;;;;19.00;99.90;;;;;;4592025;19;19907;-26
2022/09/16 01:55:05;;;;;;;;;;;19.10;99.90;;;;;;4590803;19;19915;-26
2022/09/16 01:56:54;;;;;;;;;;;19.10;99.90;;;;;;4590893;19;19974;-24
2022/09/16 01:58:27;;;;;;;;;;;19.00;99.90;;;;;;4591596;19;19919;-27
2022/09/16 02:00:02;;;;;;;;;;;19.00;99.90;;;;;;4591317;19;19935;-28
2022/09/16 02:01:53;;;;;;;;;;;19.00;99.90;;;;;;4591570;19;19970;-25
2022/09/16 02:03:26;;;;;;;;;;;19.00;99.90;;;;;;4591197;19;19950;-27
2022/09/16 02:04:57;;;;;;;;;;;18.90;99.90;;;;;;4590423;19;19923;-26
2022/09/16 02:06:28;;;;;;;;;;;18.90;99.90;;;;;;4590404;19;19918;-26
2022/09/16 02:08:01;;;;;;;;;;;18.90;99.90;;;;;;4590382;19;19924;-26
2022/09/16 02:09:34;;;;;;;;;;;18.90;99.90;;;;;;4590422;19;19922;-24
2022/09/16 02:11:06;;;;;;;;;;;18.90;99.90;;;;;;4589432;19;19922;-25
2022/09/16 02:12:38;;;;;;;;;;;18.90;99.90;;;;;;4589130;19;19915;-28
2022/09/16 02:14:10;;;;;;;;;;;18.90;99.90;;;;;;4590070;19;19920;-27
2022/09/16 02:15:41;;;;;;;;;;;18.90;99.90;;;;;;4590334;19;19961;-25
2022/09/16 02:17:17;;;;;;;;;;;18.90;99.90;;;;;;4590253;19;19915;-26
2022/09/16 02:18:52;;;;;;;;;;;18.90;99.90;;;;;;4589784;19;19939;-28
2022/09/16 02:20:24;;;;;;;;;;;18.90;99.90;;;;;;4590120;19;19978;-26
2022/09/16 02:21:55;;;;;;;;;;;18.90;99.90;;;;;;4590220;19;19925;-26
2022/09/16 02:23:28;;;;;;;;;;;18.90;99.90;;;;;;4590252;19;19986;-27
2022/09/16 02:24:59;;;;;;;;;;;18.90;99.90;;;;;;4589820;19;19919;-26
2022/09/16 02:26:32;;;;;;;;;;;18.80;99.90;;;;;;4590865;19;20677;-27
2022/09/16 02:28:04;;;;;;;;;;;18.80;99.90;;;;;;4590104;19;19988;-25
2022/09/16 02:29:36;;;;;;;;;;;18.90;99.90;;;;;;4590236;19;19922;-24
2022/09/16 02:31:08;;;;;;;;;;;18.90;99.90;;;;;;4589830;19;19919;-24
2022/09/16 02:32:40;;;;;;;;;;;18.90;99.90;;;;;;4588769;19;19915;-27
2022/09/16 02:34:13;;;;;;;;;;;18.90;99.90;;;;;;4590596;19;19915;-25
2022/09/16 02:35:46;;;;;;;;;;;18.80;99.90;;;;;;4590153;19;20241;-26
2022/09/16 02:37:17;;;;;;;;;;;18.90;99.90;;;;;;4589703;19;19996;-26
2022/09/16 02:38:52;;;;;;;;;;;18.90;99.90;;;;;;4590435;19;19911;-26
2022/09/16 02:40:46;;;;;;;;;;;18.80;99.90;;;;;;4589875;19;19926;-26
2022/09/16 02:42:18;;;;;;;;;;;18.80;99.90;;;;;;4588497;19;20302;-26
2022/09/16 02:43:49;;;;;;;;;;;18.80;99.90;;;;;;4587550;19;19919;-25
2022/09/16 02:45:21;;;;;;;;;;;18.80;99.90;;;;;;4589205;19;19911;-26
2022/09/16 02:47:10;;;;;;;;;;;18.80;99.90;;;;;;4586243;19;19966;-26
2022/09/16 02:48:46;;;;;;;;;;;18.80;99.90;;;;;;4587693;19;20489;-28
2022/09/16 02:50:26;;;;;;;;;;;18.80;99.90;;;;;;4588844;19;19941;-26
2022/09/16 02:51:58;;;;;;;;;;;18.80;99.90;;;;;;4586147;19;19950;-26
2022/09/16 02:53:30;;;;;;;;;;;18.80;99.90;;;;;;4587687;19;20370;-26
2022/09/16 02:55:01;;;;;;;;;;;18.80;99.90;;;;;;4588179;19;20389;-25
2022/09/16 02:56:35;;;;;;;;;;;18.80;99.90;;;;;;4588453;19;19923;-25
2022/09/16 02:58:06;;;;;;;;;;;18.80;99.90;;;;;;4588209;19;19926;-27
2022/09/16 02:59:37;;;;;;;;;;;18.80;99.90;;;;;;4588061;19;19918;-28
2022/09/16 03:01:09;;;;;;;;;;;18.80;99.90;;;;;;4586617;19;19998;-26
2022/09/16 03:02:40;;;;;;;;;;;18.80;99.90;;;;;;4584918;19;19926;-26
2022/09/16 03:04:13;;;;;;;;;;;18.80;99.90;;;;;;4584816;19;19915;-27
2022/09/16 03:06:02;;;;;;;;;;;18.80;99.90;;;;;;4585065;19;20429;-26
2022/09/16 03:07:34;;;;;;;;;;;18.80;99.90;;;;;;4585409;19;19982;-26
2022/09/16 03:09:06;;;;;;;;;;;18.80;99.90;;;;;;4585584;19;19926;-26
2022/09/16 03:10:38;;;;;;;;;;;18.80;99.90;;;;;;4584953;19;19936;-26
2022/09/16 03:12:12;;;;;;;;;;;18.80;99.90;;;;;;4583970;19;19979;-26
2022/09/16 03:13:49;;;;;;;;;;;18.80;99.90;;;;;;4584756;19;19922;-28
2022/09/16 03:15:35;;;;;;;;;;;18.80;99.90;;;;;;4586220;19;19911;-25
2022/09/16 03:17:24;;;;;;;;;;;18.80;99.90;;;;;;4588052;19;19914;-25
2022/09/16 03:18:58;;;;;;;;;;;18.80;99.90;;;;;;4587782;19;19995;-25
2022/09/16 03:20:35;;;;;;;;;;;18.80;99.90;;;;;;4589939;19;19999;-25
2022/09/16 03:22:09;;;;;;;;;;;18.80;99.90;;;;;;4589279;19;19919;-27
2022/09/16 03:23:53;;;;;;;;;;;18.80;99.90;;;;;;4590122;19;19971;-24
2022/09/16 03:25:24;;;;;;;;;;;18.80;99.90;;;;;;4589823;19;20252;-25
2022/09/16 03:27:04;;;;;;;;;;;18.80;99.90;;;;;;4589828;19;19907;-27
2022/09/16 03:28:37;;;;;;;;;;;18.80;99.90;;;;;;4587640;19;19911;-26
2022/09/16 03:30:09;;;;;;;;;;;18.80;99.90;;;;;;4587580;19;20266;-26
2022/09/16 03:31:48;;;;;;;;;;;18.80;99.90;;;;;;4587265;19;20348;-25
2022/09/16 03:33:28;;;;;;;;;;;18.80;99.90;;;;;;4588866;19;19927;-25
2022/09/16 03:35:11;;;;;;;;;;;18.80;99.90;;;;;;4590274;19;19929;-27
2022/09/16 03:36:47;;;;;;;;;;;18.80;99.90;;;;;;4590087;19;19930;-26
2022/09/16 03:38:18;;;;;;;;;;;18.80;99.90;;;;;;4589687;19;19919;-26
2022/09/16 03:39:52;;;;;;;;;;;18.80;99.90;;;;;;4589281;19;19929;-25
2022/09/16 03:41:23;;;;;;;;;;;18.80;99.90;;;;;;4589755;19;19919;-28
2022/09/16 03:42:56;;;;;;;;;;;18.80;99.90;;;;;;4590054;19;20425;-25
2022/09/16 03:44:32;;;;;;;;;;;18.80;99.90;;;;;;4587751;19;19919;-26
2022/09/16 03:46:05;;;;;;;;;;;18.80;99.90;;;;;;4587281;19;19918;-25
2022/09/16 03:47:36;;;;;;;;;;;18.80;99.90;;;;;;4587389;19;19926;-26
2022/09/16 03:49:07;;;;;;;;;;;18.80;99.90;;;;;;4587661;19;20035;-25
2022/09/16 03:50:39;;;;;;;;;;;18.80;99.90;;;;;;4587604;19;19921;-26
2022/09/16 03:52:10;;;;;;;;;;;18.80;99.90;;;;;;4586682;19;20371;-25
2022/09/16 03:53:41;;;;;;;;;;;18.80;99.90;;;;;;4587228;19;19932;-26
2022/09/16 03:55:12;;;;;;;;;;;18.80;99.90;;;;;;4587170;19;19915;-25
2022/09/16 03:56:43;;;;;;;;;;;18.80;99.90;;;;;;4587165;19;19950;-26
2022/09/16 03:58:14;;;;;;;;;;;18.80;99.90;;;;;;4591425;19;19974;-25
2022/09/16 03:59:45;;;;;;;;;;;18.80;99.90;;;;;;4592606;19;19923;-25
2022/09/16 04:01:16;;;;;;;;;;;18.80;99.90;;;;;;4594045;19;20017;-25
2022/09/16 04:02:47;;;;;;;;;;;18.80;99.90;;;;;;4593993;19;20357;-25
2022/09/16 04:04:18;;;;;;;;;;;18.80;99.90;;;;;;4594007;19;19941;-26
2022/09/16 04:05:52;;;;;;;;;;;18.80;99.90;;;;;;4594206;19;20329;-26
2022/09/16 04:07:24;;;;;;;;;;;18.80;99.90;;;;;;4592943;19;19923;-25
2022/09/16 04:08:58;;;;;;;;;;;18.80;99.90;;;;;;4593455;19;19982;-26
2022/09/16 04:10:29;;;;;;;;;;;18.80;99.90;;;;;;4593390;19;20348;-25
2022/09/16 04:12:00;;;;;;;;;;;18.80;99.90;;;;;;4592684;19;19925;-24
2022/09/16 04:13:32;;;;;;;;;;;18.80;99.90;;;;;;4593904;19;20242;-27
2022/09/16 04:15:03;;;;;;;;;;;18.70;99.90;;;;;;4593984;19;20668;-26
2022/09/16 04:16:34;;;;;;;;;;;18.70;99.90;;;;;;4593731;19;19982;-25
2022/09/16 04:18:05;;;;;;;;;;;18.70;99.90;;;;;;4594143;19;19921;-27
2022/09/16 04:19:37;;;;;;;;;;;18.80;99.90;;;;;;4593632;19;20351;-26
2022/09/16 04:21:08;;;;;;;;;;;18.80;99.90;;;;;;4593584;19;19915;-27
2022/09/16 04:22:39;;;;;;;;;;;18.80;99.90;;;;;;4592696;19;19939;-26
2022/09/16 04:24:10;;;;;;;;;;;18.70;99.90;;;;;;4593484;19;19919;-23
2022/09/16 04:25:41;;;;;;;;;;;18.70;99.90;;;;;;4593652;19;20448;-25
2022/09/16 04:27:12;;;;;;;;;;;18.70;99.90;;;;;;4593711;19;19919;-26
2022/09/16 04:28:43;;;;;;;;;;;18.70;99.90;;;;;;4591347;19;19915;-29
2022/09/16 04:30:14;;;;;;;;;;;18.80;99.90;;;;;;4592036;19;19915;-25
2022/09/16 04:31:45;;;;;;;;;;;18.80;99.90;;;;;;4591786;19;19919;-29
2022/09/16 04:33:16;;;;;;;;;;;18.80;99.90;;;;;;4593236;19;19915;-26
2022/09/16 04:34:47;;;;;;;;;;;18.80;99.90;;;;;;4592643;19;20242;-26
2022/09/16 04:36:18;;;;;;;;;;;18.90;99.90;;;;;;4592913;19;19919;-26
2022/09/16 04:37:50;;;;;;;;;;;18.90;99.90;;;;;;4593420;19;19923;-25
2022/09/16 04:39:21;;;;;;;;;;;18.90;99.90;;;;;;4592382;19;19956;-25
2022/09/16 04:40:53;;;;;;;;;;;18.90;99.90;;;;;;4590748;19;19950;-26
2022/09/16 04:42:24;;;;;;;;;;;18.90;99.90;;;;;;4591957;19;20617;-28
2022/09/16 04:43:56;;;;;;;;;;;18.90;99.90;;;;;;4592776;19;19923;-28
2022/09/16 04:45:27;;;;;;;;;;;18.90;99.90;;;;;;4591978;19;19923;-25
2022/09/16 04:46:58;;;;;;;;;;;18.90;99.90;;;;;;4593162;19;20240;-26
2022/09/16 04:48:29;;;;;;;;;;;19.00;99.90;;;;;;4592937;19;19988;-25
2022/09/16 04:50:00;;;;;;;;;;;18.90;99.90;;;;;;4593212;19;19922;-29
2022/09/16 04:51:31;;;;;;;;;;;18.90;99.90;;;;;;4594810;19;20273;-28
2022/09/16 04:53:02;;;;;;;;;;;18.90;99.90;;;;;;4595435;19;19915;-26
2022/09/16 04:54:33;;;;;;;;;;;18.90;99.90;;;;;;4592542;19;19927;-26
2022/09/16 04:56:08;;;;;;;;;;;18.90;99.90;;;;;;4592426;19;19927;-26
2022/09/16 04:57:40;;;;;;;;;;;18.90;99.90;;;;;;4592289;19;19914;-25
2022/09/16 04:59:11;;;;;;;;;;;18.90;99.90;;;;;;4592358;19;20012;-25
2022/09/16 05:00:42;;;;;;;;;;;18.90;99.90;;;;;;4592405;19;20329;-25
2022/09/16 05:02:13;;;;;;;;;;;18.90;99.90;;;;;;4591924;19;20281;-25
2022/09/16 05:03:46;;;;;;;;;;;18.90;99.90;;;;;;4592180;19;19926;-24
2022/09/16 05:05:17;;;;;;;;;;;18.90;99.90;;;;;;4591182;19;20234;-25
2022/09/16 05:06:48;;;;;;;;;;;19.00;99.90;;;;;;4591441;19;19956;-26
2022/09/16 05:08:19;;;;;;;;;;;18.90;99.90;;;;;;4594259;19;19921;-25
2022/09/16 05:09:50;;;;;;;;;;;18.90;99.90;;;;;;4591893;19;19926;-24
2022/09/16 05:11:23;;;;;;;;;;;18.90;99.90;;;;;;4591673;19;19910;-23
2022/09/16 05:12:54;;;;;;;;;;;18.90;99.90;;;;;;4590086;19;19919;-25
2022/09/16 05:14:25;;;;;;;;;;;18.90;99.90;;;;;;4591538;19;19915;-25
2022/09/16 05:16:00;;;;;;;;;;;19.00;99.90;;;;;;4591708;19;19923;-25
2022/09/16 05:17:31;;;;;;;;;;;18.90;99.90;;;;;;4591933;19;19919;-26
2022/09/16 05:19:04;;;;;;;;;;;16.80;99.90;;;;;;4591457;19;19988;-26
2022/09/16 05:20:36;;;;;;;;;;;16.00;99.90;;;;;;4590009;19;19911;-25
2022/09/16 05:22:07;;;;;;;;;;;15.70;99.90;;;;;;4590538;19;19915;-25
2022/09/16 05:23:39;;;;;;;;;;;15.60;99.90;;;;;;4593412;19;19926;-26
2022/09/16 05:25:10;;;;;;;;;;;15.50;99.90;;;;;;4590885;19;19926;-25
2022/09/16 05:26:42;;;;;;;;;;;15.50;99.90;;;;;;4592488;19;19930;-27
2022/09/16 05:28:13;;;;;;;;;;;15.50;99.90;;;;;;4592728;19;19915;-27
2022/09/16 05:29:47;;;;;;;;;;;15.50;99.90;;;;;;4591751;19;20167;-24
2022/09/16 05:31:20;;;;;;;;;;;15.40;99.90;;;;;;4591856;19;19922;-25
2022/09/16 05:32:53;;;;;;;;;;;15.40;99.90;;;;;;4590171;19;20325;-23
2022/09/16 05:34:27;;;;;;;;;;;15.40;99.90;;;;;;4590588;19;19922;-25
2022/09/16 05:36:02;;;;;;;;;;;15.40;99.90;;;;;;4591096;19;19940;-24
2022/09/16 05:37:33;;;;;;;;;;;15.40;99.90;;;;;;4590586;19;19918;-25
2022/09/16 05:39:11;;;;;;;;;;;15.40;99.90;;;;;;4590807;19;19923;-23
2022/09/16 05:40:42;;;;;;;;;;;15.40;99.90;;;;;;4590342;19;19919;-24
2022/09/16 05:42:13;;;;;;;;;;;15.40;99.90;;;;;;4592570;19;19934;-23
2022/09/16 05:43:44;;;;;;;;;;;15.40;99.90;;;;;;4590318;19;19918;-25
2022/09/16 05:45:15;;;;;;;;;;;15.40;99.90;;;;;;4590627;19;19923;-24
2022/09/16 05:46:46;;;;;;;;;;;15.40;99.90;;;;;;4591332;19;20351;-25
2022/09/16 05:48:21;;;;;;;;;;;15.40;99.90;;;;;;4588522;19;20467;-24
2022/09/16 05:49:53;;;;;;;;;;;15.40;99.90;;;;;;4590584;19;19915;-24
2022/09/16 05:51:25;;;;;;;;;;;15.40;99.90;;;;;;4590616;19;19986;-25
2022/09/16 05:52:55;;;;;;;;;;;15.40;99.90;;;;;;4588394;19;19919;-28
2022/09/16 05:54:26;;;;;;;;;;;15.40;99.90;;;;;;4589106;19;19978;-24
2022/09/16 05:56:01;;;;;;;;;;;15.40;99.90;;;;;;4592878;19;19922;-25
2022/09/16 05:57:32;;;;;;;;;;;15.40;99.90;;;;;;4592297;19;19923;-25
2022/09/16 05:59:04;;;;;;;;;;;15.40;99.90;;;;;;4591821;19;20248;-24
2022/09/16 06:00:35;;;;;;;;;;;15.40;99.90;;;;;;4591091;19;20455;-24
2022/09/16 06:02:07;;;;;;;;;;;15.40;99.90;;;;;;4591236;19;19921;-26
2022/09/16 06:03:39;;;;;;;;;;;15.50;99.90;;;;;;4589831;19;19930;-23
2022/09/16 06:05:10;;;;;;;;;;;15.50;99.90;;;;;;4589876;19;20434;-26
2022/09/16 06:06:44;;;;;;;;;;;15.50;99.90;;;;;;4592444;19;19918;-24
2022/09/16 06:08:15;;;;;;;;;;;15.40;99.90;;;;;;4590694;19;19926;-24
2022/09/16 06:09:46;;;;;;;;;;;15.50;99.90;;;;;;4591973;19;19926;-24
2022/09/16 06:11:22;;;;;;;;;;;15.50;99.90;;;;;;4590605;19;19918;-25
2022/09/16 06:12:54;;;;;;;;;;;15.50;99.90;;;;;;4588976;19;19919;-26
2022/09/16 06:14:25;;;;;;;;;;;15.50;99.90;;;;;;4589584;19;19947;-26
2022/09/16 06:15:57;;;;;;;;;;;15.50;99.90;;;;;;4590191;19;19926;-25
2022/09/16 06:17:41;;;;;;;;;;;15.50;99.90;;;;;;4590264;19;19919;-26
2022/09/16 06:19:20;;;;;;;;;;;15.50;99.90;;;;;;4588916;19;19981;-23
2022/09/16 06:20:51;;;;;;;;;;;15.60;99.90;;;;;;4587636;19;19911;-24
2022/09/16 06:22:24;;;;;;;;;;;15.60;99.90;;;;;;4589438;19;19923;-26
2022/09/16 06:23:55;;;;;;;;;;;15.60;99.90;;;;;;4588861;19;20333;-26
2022/09/16 06:25:26;;;;;;;;;;;15.60;99.90;;;;;;4588082;19;19926;-26
2022/09/16 06:26:57;;;;;;;;;;;15.60;99.90;;;;;;4591764;19;19918;-24
2022/09/16 06:28:29;;;;;;;;;;;15.60;99.90;;;;;;4590302;19;19926;-26
2022/09/16 06:29:59;;;;;;;;;;;15.60;99.90;;;;;;4589926;19;19919;-26
2022/09/16 06:31:30;;;;;;;;;;;15.60;99.90;;;;;;4590402;19;19972;-24
2022/09/16 06:33:01;;;;;;;;;;;15.60;99.90;;;;;;4589478;19;19915;-24
2022/09/16 06:34:32;;;;;;;;;;;15.60;99.90;;;;;;4588995;19;19934;-26
2022/09/16 06:36:07;;;;;;;;;;;15.70;99.90;;;;;;4589625;19;19919;-25
2022/09/16 06:37:38;;;;;;;;;;;15.70;99.90;;;;;;4589858;19;19927;-25
2022/09/16 06:39:13;;;;;;;;;;;15.60;99.90;;;;;;4589398;19;19923;-24
2022/09/16 06:40:45;;;;;;;;;;;15.70;99.90;;;;;;4588048;19;19950;-24
2022/09/16 06:42:16;;;;;;;;;;;15.70;99.90;;;;;;4591892;19;19923;-25
2022/09/16 06:43:47;;;;;;;;;;;15.70;99.90;;;;;;4590788;19;20248;-26
2022/09/16 06:45:33;;;;;;;;;;;15.70;99.90;;;;;;4589821;19;19919;-26
2022/09/16 06:47:04;;;;;;;;;;;15.70;99.90;;;;;;4588259;19;20380;-25
2022/09/16 06:48:35;;;;;;;;;;;15.80;99.90;;;;;;4589455;19;20011;-24
2022/09/16 06:50:08;;;;;;;;;;;15.80;99.90;;;;;;4590234;19;20365;-27
2022/09/16 06:51:39;;;;;;;;;;;15.80;99.90;;;;;;4590487;19;19915;-25
2022/09/16 06:53:14;;;;;;;;;;;15.80;99.90;;;;;;4590244;19;19925;-25
2022/09/16 06:54:46;;;;;;;;;;;15.80;99.90;;;;;;4589375;19;20339;-26
2022/09/16 06:56:18;;;;;;;;;;;15.80;99.90;;;;;;4590603;19;20499;-25
2022/09/16 06:57:50;;;;;;;;;;;15.80;99.90;;;;;;4590362;19;19922;-28
2022/09/16 06:59:21;;;;;;;;;;;15.80;99.90;;;;;;4588043;19;19931;-27
2022/09/16 07:00:52;;;;;;;;;;;15.80;99.90;;;;;;4589560;19;19918;-26
2022/09/16 07:02:23;;;;;;;;;;;15.80;99.90;;;;;;4590549;19;19926;-25
2022/09/16 07:03:58;;;;;;;;;;;15.80;99.90;;;;;;4590217;19;19952;-28
2022/09/16 07:05:30;;;;;;;;;;;15.90;99.90;;;;;;4590624;19;20006;-25
2022/09/16 07:07:04;;;;;;;;;;;15.90;99.90;;;;;;4590585;19;19990;-25
2022/09/16 07:08:36;;;;;;;;;;;15.90;99.90;;;;;;4589717;19;20602;-25
2022/09/16 07:10:08;;;;;;;;;;;15.90;99.90;;;;;;4589617;19;19982;-26
2022/09/16 07:11:41;;;;;;;;;;;15.90;99.90;;;;;;4588797;19;20018;-25
2022/09/16 07:13:12;;;;;;;;;;;16.00;99.90;;;;;;4590329;19;20327;-26
2022/09/16 07:14:42;;;;;;;;;;;16.00;99.90;;;;;;4589973;19;19911;-25
2022/09/16 07:16:16;;;;;;;;;;;16.00;99.90;;;;;;4589806;19;19922;-24
2022/09/16 07:17:51;;;;;;;;;;;16.00;99.90;;;;;;4588891;19;19923;-24
2022/09/16 07:19:23;;;;;;;;;;;16.00;99.90;;;;;;4588862;19;19947;-24
2022/09/16 07:20:59;;;;;;;;;;;16.00;99.90;;;;;;4589491;19;19923;-25
2022/09/16 07:22:31;;;;;;;;;;;16.00;99.90;;;;;;4589893;19;20268;-26
2022/09/16 07:24:02;;;;;;;;;;;16.00;99.90;;;;;;4589370;19;19952;-26
2022/09/16 07:25:34;;;;;;;;;;;16.00;99.90;;;;;;4588344;19;19914;-24
2022/09/16 07:27:05;;;;;;;;;;;16.00;99.90;;;;;;4589225;19;19911;-26
2022/09/16 07:28:36;;;;;;;;;;;16.00;99.90;;;;;;4588527;19;19982;-27
2022/09/16 07:30:09;;;;;;;;;;;16.10;99.90;;;;;;4589302;19;19930;-25
2022/09/16 07:31:40;;;;;;;;;;;16.10;99.90;;;;;;4589452;19;19927;-25
2022/09/16 07:33:11;;;;;;;;;;;16.10;99.90;;;;;;4588782;19;20332;-26
2022/09/16 07:34:42;;;;;;;;;;;16.10;99.90;;;;;;4589151;19;20265;-24
2022/09/16 07:36:14;;;;;;;;;;;16.20;99.90;;;;;;4589481;19;20531;-25
2022/09/16 07:37:45;;;;;;;;;;;16.20;99.90;;;;;;4589449;19;19915;-24
2022/09/16 07:39:16;;;;;;;;;;;16.10;99.90;;;;;;4588092;19;19943;-24
2022/09/16 07:40:47;;;;;;;;;;;16.20;99.90;;;;;;4587697;19;19919;-26
2022/09/16 07:42:19;;;;;;;;;;;16.20;99.90;;;;;;4587231;19;20277;-27
2022/09/16 07:43:51;;;;;;;;;;;16.20;99.90;;;;;;4587818;19;19982;-25
2022/09/16 07:45:23;;;;;;;;;;;16.20;99.90;;;;;;4587964;19;19918;-25
2022/09/16 07:46:53;;;;;;;;;;;16.20;99.90;;;;;;4589248;19;19930;-26
2022/09/16 07:48:27;;;;;;;;;;;16.20;99.90;;;;;;4586485;19;19994;-24
2022/09/16 07:49:58;;;;;;;;;;;16.20;99.90;;;;;;4587956;19;19918;-23
2022/09/16 07:51:29;;;;;;;;;;;16.20;99.90;;;;;;4588808;19;20323;-24
2022/09/16 07:53:00;;;;;;;;;;;16.20;99.90;;;;;;4587785;19;19915;-24
2022/09/16 07:54:31;;;;;;;;;;;16.20;99.90;;;;;;4589117;19;19919;-24
2022/09/16 07:56:03;;;;;;;;;;;16.20;99.90;;;;;;4587283;19;19949;-25
2022/09/16 07:57:34;;;;;;;;;;;16.30;99.90;;;;;;4587937;19;19914;-24
2022/09/16 07:59:06;;;;;;;;;;;16.30;99.90;;;;;;4588687;19;19922;-25
2022/09/16 08:00:37;;;;;;;;;;;16.30;99.90;;;;;;4588997;19;19925;-25
2022/09/16 08:02:08;;;;;;;;;;;16.30;99.90;;;;;;4588762;19;19934;-25
2022/09/16 08:03:39;;;;;;;;;;;16.30;99.90;;;;;;4588075;19;19978;-28
2022/09/16 08:05:12;;;;;;;;;;;16.30;99.90;;;;;;4588636;19;19911;-26
2022/09/16 08:06:43;;;;;;;;;;;16.40;99.90;;;;;;4587754;19;19922;-27
2022/09/16 08:08:14;;;;;;;;;;;16.40;99.90;;;;;;4588163;19;19922;-24
2022/09/16 08:09:45;;;;;;;;;;;16.40;99.90;;;;;;4586124;19;19918;-25
2022/09/16 08:11:16;;;;;;;;;;;16.40;99.90;;;;;;4585391;19;19922;-25
2022/09/16 08:12:47;;;;;;;;;;;16.40;99.90;;;;;;4586997;19;19946;-25
2022/09/16 08:14:18;;;;;;;;;;;16.50;99.90;;;;;;4588511;19;19927;-25
2022/09/16 08:15:49;;;;;;;;;;;16.50;99.90;;;;;;4588471;19;20276;-26
2022/09/16 08:17:20;;;;;;;;;;;16.50;99.90;;;;;;4588264;19;19923;-25
2022/09/16 08:18:52;;;;;;;;;;;16.50;99.90;;;;;;4588187;19;19919;-25
2022/09/16 08:20:25;;;;;;;;;;;16.50;99.90;;;;;;4587276;19;19994;-27
2022/09/16 08:21:55;;;;;;;;;;;16.60;99.90;;;;;;4588018;19;19923;-27
2022/09/16 08:23:26;;;;;;;;;;;16.60;99.90;;;;;;4587968;19;19936;-25
2022/09/16 08:24:58;;;;;;;;;;;16.60;99.90;;;;;;4588359;19;19941;-24
2022/09/16 08:26:29;;;;;;;;;;;16.60;99.90;;;;;;4588667;19;19919;-26
2022/09/16 08:28:01;;;;;;;;;;;16.60;99.90;;;;;;4588754;19;19923;-25
2022/09/16 08:29:32;;;;;;;;;;;16.70;99.90;;;;;;4586934;19;19960;-25
2022/09/16 08:31:03;;;;;;;;;;;16.70;99.90;;;;;;4588099;19;19911;-23
2022/09/16 08:32:34;;;;;;;;;;;16.70;99.90;;;;;;4587923;19;19929;-27
2022/09/16 08:34:05;;;;;;;;;;;16.70;99.90;;;;;;4587617;19;19982;-24
2022/09/16 08:35:37;;;;;;;;;;;16.70;99.90;;;;;;4588206;19;19922;-25
2022/09/16 08:37:08;;;;;;;;;;;16.60;99.90;;;;;;4587326;19;19925;-27
2022/09/16 08:38:40;;;;;;;;;;;16.60;99.90;;;;;;4587776;19;19922;-24
2022/09/16 08:40:13;;;;;;;;;;;16.60;99.90;;;;;;4588348;19;19979;-24
2022/09/16 08:41:58;;;;;;;;;;;16.70;99.90;;;;;;4587393;19;19923;-25
2022/09/16 08:43:30;;;;;;;;;;;16.70;99.90;;;;;;4587137;19;20348;-26
2022/09/16 08:45:20;;;;;;;;;;;16.70;99.90;;;;;;4590834;19;19933;-27
2022/09/16 08:46:51;;;;;;;;;;;16.70;99.90;;;;;;4593395;19;20338;-27
2022/09/16 08:48:32;;;;;;;;;;;16.70;99.90;;;;;;4591928;19;19923;-25
2022/09/16 08:50:04;;;;;;;;;;;16.70;99.90;;;;;;4591228;19;19914;-25
2022/09/16 08:51:35;;;;;;;;;;;16.70;99.90;;;;;;4591440;19;20621;-24
2022/09/16 08:53:10;;;;;;;;;;;16.70;99.90;;;;;;4591213;19;19923;-27
2022/09/16 08:54:42;;;;;;;;;;;16.80;99.90;;;;;;4591230;19;20339;-25
2022/09/16 08:56:15;;;;;;;;;;;16.80;99.90;;;;;;4592305;19;19914;-26
2022/09/16 08:58:09;;;;;;;;;;;16.80;99.90;;;;;;4592235;19;19919;-24
2022/09/16 08:59:42;;;;;;;;;;;16.80;99.90;;;;;;4591715;19;19911;-26
2022/09/16 09:01:26;;;;;;;;;;;16.80;99.90;;;;;;4591178;19;19947;-25
2022/09/16 09:03:06;;;;;;;;;;;16.80;99.90;;;;;;4592319;19;20434;-25